createdAt,value
2023-05-03T00:02:02.638Z,43.59
2023-05-03T00:04:29.221Z,43.81
2023-05-03T00:06:56.048Z,43.71
2023-05-03T00:09:22.837Z,43.55
2023-05-03T00:11:49.482Z,43.57
2023-05-03T00:14:16.114Z,43.56
2023-05-03T00:16:42.915Z,43.71
2023-05-03T00:19:17.658Z,43.56
2023-05-03T00:21:51.139Z,43.42
2023-05-03T00:24:17.633Z,43.50
2023-05-03T00:26:44.222Z,43.55
2023-05-03T00:29:10.762Z,43.39
2023-05-03T00:31:37.474Z,43.36
2023-05-03T00:34:04.045Z,43.31
2023-05-03T00:36:31.035Z,43.28
2023-05-03T00:38:57.530Z,43.14
2023-05-03T00:41:24.406Z,43.42
2023-05-03T00:43:51.234Z,43.41
2023-05-03T00:46:18.149Z,43.18
2023-05-03T00:48:48.037Z,43.08
2023-05-03T00:51:16.035Z,43.29
2023-05-03T00:53:43.048Z,43.16
2023-05-03T00:56:11.161Z,43.26
2023-05-03T00:58:40.257Z,43.08
2023-05-03T01:01:07.708Z,43.33
2023-05-03T01:03:36.493Z,43.13
2023-05-03T01:06:13.639Z,43.14
2023-05-03T01:08:53.868Z,43.06
2023-05-03T01:11:27.208Z,43.10
2023-05-03T01:14:06.244Z,43.19
2023-05-03T01:16:54.035Z,43.02
2023-05-03T01:19:26.893Z,43.22
2023-05-03T01:22:02.706Z,42.98
2023-05-03T01:24:32.109Z,43.00
2023-05-03T01:26:59.242Z,42.87
2023-05-03T01:29:25.935Z,43.29
2023-05-03T01:32:03.892Z,43.06
2023-05-03T01:34:54.985Z,43.12
2023-05-03T01:37:21.842Z,43.02
2023-05-03T01:40:16.935Z,43.05
2023-05-03T01:42:43.812Z,42.95
2023-05-03T01:45:11.442Z,43.01
2023-05-03T01:47:38.290Z,42.94
2023-05-03T01:50:05.826Z,43.16
2023-05-03T01:52:33.650Z,42.93
2023-05-03T01:55:00.378Z,43.01
2023-05-03T01:57:26.921Z,42.90
2023-05-03T01:59:53.484Z,43.01
2023-05-03T02:02:20.680Z,42.89
2023-05-03T02:04:47.460Z,42.96
2023-05-03T02:07:14.192Z,42.75
2023-05-03T02:09:40.723Z,42.96
2023-05-03T02:12:07.961Z,42.82
2023-05-03T02:14:34.681Z,42.60
2023-05-03T02:17:03.179Z,42.95
2023-05-03T02:19:29.983Z,42.82
2023-05-03T02:21:57.034Z,42.74
2023-05-03T02:24:23.654Z,42.71
2023-05-03T02:26:50.660Z,42.69
2023-05-03T02:29:17.231Z,42.73
2023-05-03T02:31:45.389Z,42.57
2023-05-03T02:34:12.510Z,42.80
2023-05-03T02:36:39.369Z,42.44
2023-05-03T02:39:05.933Z,42.57
2023-05-03T02:41:33.239Z,42.40
2023-05-03T02:44:00.895Z,42.66
2023-05-03T02:46:27.903Z,42.56
2023-05-03T02:48:54.643Z,42.47
2023-05-03T02:51:21.211Z,42.54
2023-05-03T02:53:48.169Z,42.60
2023-05-03T02:56:14.727Z,42.58
2023-05-03T02:58:41.251Z,42.35
2023-05-03T03:01:08.091Z,42.56
2023-05-03T03:03:34.843Z,42.19
2023-05-03T03:06:01.976Z,42.30
2023-05-03T03:08:28.915Z,42.25
2023-05-03T03:10:59.612Z,42.39
2023-05-03T03:13:26.180Z,42.18
2023-05-03T03:15:52.987Z,42.36
2023-05-03T03:18:19.881Z,42.41
2023-05-03T03:20:46.704Z,42.15
2023-05-03T03:23:13.305Z,42.20
2023-05-03T03:25:41.918Z,42.04
2023-05-03T03:28:08.777Z,42.11
2023-05-03T03:30:35.814Z,42.00
2023-05-03T03:33:15.953Z,42.18
2023-05-03T03:35:42.842Z,41.86
2023-05-03T03:38:11.075Z,41.86
2023-05-03T03:40:44.406Z,41.88
2023-05-03T03:43:11.282Z,42.06
2023-05-03T03:45:38.063Z,42.02
2023-05-03T03:48:06.044Z,41.96
2023-05-03T03:50:34.096Z,41.95
2023-05-03T03:53:01.080Z,41.85
2023-05-03T03:55:28.235Z,41.74
2023-05-03T03:57:57.782Z,41.77
2023-05-03T04:00:26.109Z,41.77
2023-05-03T04:03:03.607Z,41.89
2023-05-03T04:05:32.387Z,41.74
2023-05-03T04:07:59.201Z,41.74
2023-05-03T04:10:28.827Z,41.80
2023-05-03T04:12:55.876Z,41.56
2023-05-03T04:15:23.154Z,41.74
2023-05-03T04:17:50.770Z,41.63
2023-05-03T04:20:18.218Z,41.48
2023-05-03T04:22:48.056Z,41.43
2023-05-03T04:25:18.297Z,41.48
2023-05-03T04:27:52.287Z,41.39
2023-05-03T04:30:20.097Z,41.44
2023-05-03T04:32:54.102Z,41.58
2023-05-03T04:35:21.850Z,41.39
2023-05-03T04:37:48.421Z,41.31
2023-05-03T04:40:23.058Z,41.49
2023-05-03T04:42:59.236Z,41.21
2023-05-03T04:45:27.160Z,41.25
2023-05-03T04:47:54.526Z,41.26
2023-05-03T04:50:21.329Z,41.45
2023-05-03T04:52:50.536Z,41.54
2023-05-03T04:55:18.496Z,41.67
2023-05-03T04:57:45.599Z,41.74
2023-05-03T05:00:14.418Z,41.38
2023-05-03T05:02:45.790Z,41.74
2023-05-03T05:05:13.927Z,41.71
2023-05-03T05:07:41.695Z,41.89
2023-05-03T05:10:10.383Z,41.71
2023-05-03T05:12:37.047Z,41.75
2023-05-03T05:15:06.404Z,41.72
2023-05-03T05:17:33.118Z,41.64
2023-05-03T05:20:01.814Z,41.41
2023-05-03T05:22:29.538Z,41.46
2023-05-03T05:24:59.171Z,41.60
2023-05-03T05:27:29.412Z,41.52
2023-05-03T05:29:57.738Z,41.57
2023-05-03T05:32:24.581Z,41.44
2023-05-03T05:34:55.294Z,41.45
2023-05-03T05:37:27.610Z,41.50
2023-05-03T05:39:57.474Z,41.54
2023-05-03T05:42:27.028Z,41.43
2023-05-03T05:44:53.663Z,41.70
2023-05-03T05:47:21.789Z,41.38
2023-05-03T05:49:50.732Z,41.40
2023-05-03T05:52:17.384Z,41.63
2023-05-03T05:54:44.064Z,41.50
2023-05-03T05:57:12.844Z,41.30
2023-05-03T05:59:40.775Z,41.59
2023-05-03T06:02:14.808Z,41.58
2023-05-03T06:04:42.171Z,41.32
2023-05-03T06:07:08.928Z,41.54
2023-05-03T06:09:35.506Z,41.33
2023-05-03T06:12:04.719Z,41.15
2023-05-03T06:14:33.372Z,41.38
2023-05-03T06:17:00.843Z,41.45
2023-05-03T06:19:27.436Z,41.40
2023-05-03T06:21:53.962Z,41.57
2023-05-03T06:24:21.449Z,41.64
2023-05-03T06:26:50.894Z,41.67
2023-05-03T06:29:18.199Z,41.82
2023-05-03T06:31:44.883Z,42.03
2023-05-03T06:34:12.720Z,41.98
2023-05-03T06:36:42.171Z,42.07
2023-05-03T06:39:09.449Z,42.19
2023-05-03T06:41:36.073Z,42.26
2023-05-03T06:44:04.229Z,42.12
2023-05-03T06:46:31.375Z,42.00
2023-05-03T06:48:58.176Z,42.25
2023-05-03T06:51:30.516Z,42.17
2023-05-03T06:54:01.953Z,42.18
2023-05-03T06:56:28.614Z,42.45
2023-05-03T06:58:55.129Z,42.35
2023-05-03T07:01:21.835Z,42.31
2023-05-03T07:03:48.396Z,42.48
2023-05-03T07:06:15.440Z,42.36
2023-05-03T07:08:42.597Z,42.28
2023-05-03T07:11:09.988Z,42.35
2023-05-03T07:13:36.594Z,42.49
2023-05-03T07:16:03.905Z,42.68
2023-05-03T07:18:30.682Z,42.72
2023-05-03T07:20:57.284Z,42.43
2023-05-03T07:23:23.901Z,42.71
2023-05-03T07:25:50.409Z,42.51
2023-05-03T07:28:17.125Z,42.63
2023-05-03T07:30:43.810Z,42.55
2023-05-03T07:33:10.562Z,42.33
2023-05-03T07:35:37.135Z,42.39
2023-05-03T07:38:03.847Z,42.44
2023-05-03T07:40:33.112Z,42.98
2023-05-03T07:43:00.469Z,43.87
2023-05-03T07:45:27.330Z,44.73
2023-05-03T07:47:56.495Z,45.22
2023-05-03T07:50:23.123Z,45.38
2023-05-03T07:52:52.573Z,45.34
2023-05-03T07:55:20.442Z,45.46
2023-05-03T07:57:47.080Z,45.67
2023-05-03T08:00:14.238Z,45.52
2023-05-03T08:02:41.414Z,45.61
2023-05-03T08:05:09.739Z,45.87
2023-05-03T08:07:36.729Z,46.36
2023-05-03T08:10:03.518Z,46.12
2023-05-03T08:12:30.621Z,46.03
2023-05-03T08:14:57.188Z,45.55
2023-05-03T08:17:24.009Z,45.31
2023-05-03T08:19:50.980Z,44.88
2023-05-03T08:22:18.209Z,44.72
2023-05-03T08:24:44.750Z,44.14
2023-05-03T08:27:12.450Z,44.26
2023-05-03T08:29:39.079Z,44.10
2023-05-03T08:32:06.008Z,43.87
2023-05-03T08:34:32.737Z,43.62
2023-05-03T08:36:59.555Z,43.45
2023-05-03T08:39:31.122Z,43.21
2023-05-03T08:41:58.605Z,43.28
2023-05-03T08:44:29.311Z,42.88
2023-05-03T08:46:56.157Z,42.79
2023-05-03T08:49:24.043Z,42.81
2023-05-03T08:51:51.749Z,42.49
2023-05-03T08:54:20.745Z,42.33
2023-05-03T08:56:47.781Z,42.43
2023-05-03T08:59:16.442Z,42.45
2023-05-03T09:01:43.345Z,42.40
2023-05-03T09:04:11.915Z,42.23
2023-05-03T09:06:39.169Z,42.13
2023-05-03T09:09:08.045Z,42.05
2023-05-03T09:11:38.816Z,41.70
2023-05-03T09:14:12.290Z,41.82
2023-05-03T09:16:40.853Z,41.88
2023-05-03T09:19:11.585Z,41.71
2023-05-03T09:21:40.211Z,41.53
2023-05-03T09:24:14.723Z,41.65
2023-05-03T09:26:42.409Z,41.59
2023-05-03T09:29:09.707Z,41.36
2023-05-03T09:31:37.339Z,41.47
2023-05-03T09:34:21.631Z,41.14
2023-05-03T09:36:48.514Z,40.92
2023-05-03T09:39:19.730Z,40.93
2023-05-03T09:41:46.828Z,41.11
2023-05-03T09:44:13.643Z,41.18
2023-05-03T09:46:40.259Z,41.30
2023-05-03T09:49:06.968Z,41.20
2023-05-03T09:51:34.028Z,41.01
2023-05-03T09:54:01.244Z,40.99
2023-05-03T09:56:28.953Z,40.82
2023-05-03T09:58:55.597Z,40.84
2023-05-03T10:01:24.901Z,41.12
2023-05-03T10:03:54.785Z,40.87
2023-05-03T10:06:29.921Z,40.87
2023-05-03T10:09:21.984Z,40.90
2023-05-03T10:11:52.526Z,40.86
2023-05-03T10:14:23.976Z,40.89
2023-05-03T10:16:58.177Z,40.69
2023-05-03T10:19:33.624Z,40.93
2023-05-03T10:22:11.249Z,40.83
2023-05-03T10:25:02.699Z,40.65
2023-05-03T10:27:43.144Z,40.74
2023-05-03T10:30:28.701Z,40.59
2023-05-03T10:32:55.634Z,40.81
2023-05-03T10:35:27.427Z,40.75
2023-05-03T10:37:56.943Z,40.50
2023-05-03T10:40:23.621Z,40.45
2023-05-03T10:42:56.157Z,40.37
2023-05-03T10:45:25.377Z,40.49
2023-05-03T10:48:10.651Z,40.26
2023-05-03T10:50:38.384Z,40.38
2023-05-03T10:53:05.449Z,40.56
2023-05-03T10:55:32.869Z,40.68
2023-05-03T10:58:01.007Z,40.39
2023-05-03T11:00:36.922Z,40.37
2023-05-03T11:03:18.501Z,40.46
2023-05-03T11:05:48.083Z,40.46
2023-05-03T11:08:22.407Z,40.27
2023-05-03T11:11:00.335Z,40.55
2023-05-03T11:13:28.000Z,40.40
2023-05-03T11:15:56.301Z,40.68
2023-05-03T11:18:24.719Z,40.64
2023-05-03T11:20:53.816Z,40.82
2023-05-03T11:23:25.576Z,40.81
2023-05-03T11:28:18.903Z,40.97
2023-05-03T11:30:47.039Z,40.84
2023-05-03T11:33:13.615Z,40.73
2023-05-03T11:35:40.630Z,40.95
2023-05-03T11:38:07.201Z,41.01
2023-05-03T11:40:33.829Z,40.93
2023-05-03T11:43:01.925Z,40.90
2023-05-03T11:45:38.363Z,41.09
2023-05-03T11:48:05.314Z,41.17
2023-05-03T11:50:51.564Z,41.23
2023-05-03T11:53:18.887Z,41.11
2023-05-03T11:55:49.268Z,40.99
2023-05-03T11:58:20.605Z,41.33
2023-05-03T12:00:51.673Z,41.25
2023-05-03T12:03:25.951Z,41.35
2023-05-03T12:05:57.359Z,41.15
2023-05-03T12:08:36.714Z,40.99
2023-05-03T12:11:09.466Z,41.08
2023-05-03T12:13:39.940Z,41.25
2023-05-03T12:16:13.705Z,41.48
2023-05-03T12:19:03.145Z,41.18
2023-05-03T12:21:55.379Z,41.08
2023-05-03T12:24:34.425Z,41.35
2023-05-03T12:27:02.718Z,41.00
2023-05-03T12:29:34.814Z,41.29
2023-05-03T12:32:03.433Z,41.12
2023-05-03T12:34:34.928Z,41.14
2023-05-03T12:37:05.337Z,41.03
2023-05-03T12:39:33.617Z,41.06
2023-05-03T12:44:35.136Z,40.97
2023-05-03T12:47:02.876Z,41.10
2023-05-03T12:49:30.206Z,40.92
2023-05-03T12:52:21.550Z,40.93
2023-05-03T12:54:49.068Z,40.97
2023-05-03T12:57:22.644Z,40.85
2023-05-03T12:59:53.945Z,40.70
2023-05-03T13:05:00.142Z,40.82
2023-05-03T13:07:30.424Z,40.85
2023-05-03T13:12:28.396Z,40.96
2023-05-03T13:14:55.757Z,40.79
2023-05-03T13:17:23.392Z,40.63
2023-05-03T13:19:51.637Z,40.79
2023-05-03T13:22:18.422Z,40.90
2023-05-03T13:24:47.157Z,40.57
2023-05-03T13:27:14.622Z,40.71
2023-05-03T13:29:41.723Z,40.66
2023-05-03T13:32:09.556Z,40.68
2023-05-03T13:34:36.737Z,40.94
2023-05-03T13:37:06.673Z,40.71
2023-05-03T13:39:33.329Z,40.75
2023-05-03T13:42:00.093Z,40.55
2023-05-03T13:44:26.845Z,40.58
2023-05-03T13:46:53.683Z,40.71
2023-05-03T13:49:20.674Z,40.69
2023-05-03T13:51:47.591Z,40.75
2023-05-03T13:54:14.415Z,40.77
2023-05-03T13:56:43.980Z,40.87
2023-05-03T13:59:13.683Z,40.84
2023-05-03T14:01:43.045Z,40.77
2023-05-03T14:04:10.315Z,40.86
2023-05-03T14:06:40.087Z,40.89
2023-05-03T14:09:07.862Z,40.67
2023-05-03T14:11:34.577Z,40.86
2023-05-03T14:14:02.343Z,40.82
2023-05-03T14:18:58.573Z,40.67
2023-05-03T14:21:25.175Z,40.94
2023-05-03T14:23:52.095Z,40.74
2023-05-03T14:26:22.394Z,41.02
2023-05-03T14:28:48.998Z,41.01
2023-05-03T14:31:16.499Z,41.12
2023-05-03T14:33:43.545Z,41.20
2023-05-03T14:36:10.554Z,40.91
2023-05-03T14:38:37.520Z,41.17
2023-05-03T14:41:04.547Z,42.08
2023-05-03T14:43:32.181Z,43.10
2023-05-03T14:45:58.840Z,43.95
2023-05-03T14:48:25.552Z,45.12
2023-05-03T14:50:53.180Z,45.46
2023-05-03T14:53:21.542Z,45.45
2023-05-03T14:55:48.161Z,45.33
2023-05-03T14:58:14.717Z,44.89
2023-05-03T15:00:42.428Z,44.92
2023-05-03T15:03:12.910Z,44.87
2023-05-03T15:05:44.387Z,44.78
2023-05-03T15:08:13.162Z,45.84
2023-05-03T15:10:39.806Z,46.63
2023-05-03T15:13:07.270Z,47.32
2023-05-03T15:15:33.896Z,48.14
2023-05-03T15:18:01.168Z,48.95
2023-05-03T15:20:29.124Z,49.73
2023-05-03T15:22:55.825Z,50.53
2023-05-03T15:25:22.584Z,51.00
2023-05-03T15:27:49.641Z,50.85
2023-05-03T15:30:17.304Z,50.34
2023-05-03T15:32:44.472Z,50.22
2023-05-03T15:35:11.979Z,49.63
2023-05-03T15:37:39.100Z,49.61
2023-05-03T15:40:09.196Z,49.26
2023-05-03T15:42:36.831Z,48.91
2023-05-03T15:45:05.955Z,48.54
2023-05-03T15:47:33.379Z,48.18
2023-05-03T15:50:00.440Z,48.28
2023-05-03T15:52:28.058Z,47.93
2023-05-03T15:54:56.191Z,48.09
2023-05-03T15:57:23.674Z,47.93
2023-05-03T15:59:50.321Z,47.83
2023-05-03T16:02:17.182Z,47.74
2023-05-03T16:04:44.400Z,47.96
2023-05-03T16:07:12.809Z,48.36
2023-05-03T16:09:39.592Z,48.28
2023-05-03T16:12:07.492Z,48.40
2023-05-03T16:14:35.188Z,48.24
2023-05-03T16:17:04.710Z,48.27
2023-05-03T16:19:32.063Z,48.38
2023-05-03T16:21:59.098Z,48.22
2023-05-03T16:24:25.843Z,48.21
2023-05-03T16:26:52.998Z,48.17
2023-05-03T16:29:19.811Z,48.06
2023-05-03T16:31:47.430Z,48.04
2023-05-03T16:34:14.439Z,47.97
2023-05-03T16:36:45.424Z,47.73
2023-05-03T16:39:14.313Z,47.56
2023-05-03T16:41:42.163Z,47.47
2023-05-03T16:44:09.219Z,47.46
2023-05-03T16:46:38.996Z,47.31
2023-05-03T16:49:07.140Z,46.99
2023-05-03T16:51:34.003Z,47.08
2023-05-03T16:54:03.103Z,46.67
2023-05-03T16:56:31.305Z,46.60
2023-05-03T16:58:59.109Z,46.67
2023-05-03T17:01:27.386Z,46.46
2023-05-03T17:03:54.261Z,46.39
2023-05-03T17:06:23.732Z,46.10
2023-05-03T17:08:50.380Z,46.09
2023-05-03T17:11:17.069Z,45.91
2023-05-03T17:13:44.543Z,46.06
2023-05-03T17:16:15.096Z,44.89
2023-05-03T17:18:43.466Z,43.85
2023-05-03T17:23:41.402Z,43.35
2023-05-03T17:26:10.194Z,44.24
2023-05-03T17:28:37.087Z,44.33
2023-05-03T17:31:06.216Z,44.53
2023-05-03T17:33:33.787Z,45.33
2023-05-03T17:36:07.123Z,45.81
2023-05-03T17:38:34.587Z,46.13
2023-05-03T17:41:08.507Z,46.79
2023-05-03T17:43:41.422Z,46.88
2023-05-03T17:46:13.633Z,46.40
2023-05-03T17:48:44.458Z,46.26
2023-05-03T17:51:14.325Z,46.10
2023-05-03T17:53:42.580Z,46.04
2023-05-03T17:56:16.792Z,46.24
2023-05-03T17:58:44.730Z,46.01
2023-05-03T18:01:13.220Z,45.73
2023-05-03T18:03:44.534Z,45.60
2023-05-03T18:06:13.151Z,45.39
2023-05-03T18:08:43.189Z,45.49
2023-05-03T18:11:09.909Z,45.29
2023-05-03T18:13:36.715Z,45.54
2023-05-03T18:16:08.150Z,45.39
2023-05-03T18:18:35.127Z,45.43
2023-05-03T18:21:03.683Z,45.24
2023-05-03T18:23:31.614Z,44.95
2023-05-03T18:26:02.695Z,44.93
2023-05-03T18:28:30.367Z,44.82
2023-05-03T18:30:57.001Z,44.49
2023-05-03T18:33:23.929Z,44.53
2023-05-03T18:35:51.936Z,44.59
2023-05-03T18:38:21.876Z,44.82
2023-05-03T18:41:05.920Z,44.74
2023-05-03T18:43:39.201Z,44.66
2023-05-03T18:46:05.925Z,44.61
2023-05-03T18:48:32.544Z,44.40
2023-05-03T18:51:02.444Z,44.42
2023-05-03T18:53:34.220Z,44.35
2023-05-03T18:56:07.812Z,44.60
2023-05-03T18:58:42.554Z,44.81
2023-05-03T19:01:15.892Z,44.81
2023-05-03T19:03:42.589Z,44.69
2023-05-03T19:06:09.391Z,44.60
2023-05-03T19:08:39.504Z,44.70
2023-05-03T19:11:08.452Z,44.77
2023-05-03T19:13:38.018Z,44.84
2023-05-03T19:16:05.215Z,44.84
2023-05-03T19:18:32.207Z,44.56
2023-05-03T19:21:00.064Z,44.67
2023-05-03T19:23:32.889Z,44.46
2023-05-03T19:26:08.696Z,44.46
2023-05-03T19:28:42.111Z,44.61
2023-05-03T19:31:27.191Z,44.54
2023-05-03T19:33:54.313Z,44.37
2023-05-03T19:36:33.075Z,44.45
2023-05-03T19:39:00.465Z,44.54
2023-05-03T19:41:28.444Z,44.27
2023-05-03T19:43:55.866Z,44.56
2023-05-03T19:46:22.929Z,44.18
2023-05-03T19:48:49.751Z,44.35
2023-05-03T19:51:28.084Z,44.30
2023-05-03T19:53:55.601Z,44.34
2023-05-03T19:56:25.202Z,44.18
2023-05-03T19:58:52.158Z,44.32
2023-05-03T20:01:21.809Z,44.16
2023-05-03T20:03:48.889Z,44.00
2023-05-03T20:06:15.641Z,44.20
2023-05-03T20:08:42.610Z,44.59
2023-05-03T20:11:09.201Z,45.15
2023-05-03T20:13:35.936Z,45.48
2023-05-03T20:16:08.028Z,45.78
2023-05-03T20:18:34.793Z,45.96
2023-05-03T20:21:04.455Z,46.17
2023-05-03T20:23:32.171Z,46.28
2023-05-03T20:25:58.741Z,46.88
2023-05-03T20:28:25.803Z,46.62
2023-05-03T20:30:52.829Z,46.80
2023-05-03T20:33:21.015Z,46.76
2023-05-03T20:35:50.521Z,46.70
2023-05-03T20:38:17.243Z,46.64
2023-05-03T20:40:43.732Z,46.43
2023-05-03T20:43:11.066Z,46.23
2023-05-03T20:45:37.824Z,46.04
2023-05-03T20:48:05.143Z,46.08
2023-05-03T20:50:31.828Z,45.80
2023-05-03T20:52:58.536Z,45.76
2023-05-03T20:55:25.245Z,45.58
2023-05-03T20:57:52.066Z,45.64
2023-05-03T21:00:21.017Z,45.54
2023-05-03T21:02:53.305Z,45.71
2023-05-03T21:05:21.826Z,46.04
2023-05-03T21:07:48.755Z,46.19
2023-05-03T21:10:15.387Z,46.32
2023-05-03T21:12:42.106Z,46.24
2023-05-03T21:15:09.449Z,46.12
2023-05-03T21:17:36.180Z,45.92
2023-05-03T21:22:30.211Z,45.80
2023-05-03T21:24:56.806Z,45.53
2023-05-03T21:27:23.427Z,45.65
2023-05-03T21:29:50.053Z,45.53
2023-05-03T21:32:16.546Z,45.29
2023-05-03T21:34:43.192Z,45.12
2023-05-03T21:37:09.959Z,45.29
2023-05-03T21:39:36.989Z,45.13
2023-05-03T21:42:04.031Z,44.80
2023-05-03T21:44:31.462Z,44.89
2023-05-03T21:46:58.108Z,44.59
2023-05-03T21:49:24.932Z,44.82
2023-05-03T21:51:51.530Z,44.29
2023-05-03T21:54:19.118Z,44.30
2023-05-03T21:56:45.661Z,44.35
2023-05-03T21:59:12.750Z,44.57
2023-05-03T22:01:39.347Z,44.29
2023-05-03T22:04:09.209Z,44.23
2023-05-03T22:06:36.131Z,44.17
2023-05-03T22:09:02.720Z,43.88
2023-05-03T22:11:29.591Z,43.99
2023-05-03T22:14:06.557Z,43.88
2023-05-03T22:16:34.278Z,43.78
2023-05-03T22:19:04.246Z,44.19
2023-05-03T22:21:31.958Z,43.87
2023-05-03T22:23:58.521Z,43.79
2023-05-03T22:26:26.151Z,43.77
2023-05-03T22:28:52.792Z,43.67
2023-05-03T22:31:21.948Z,43.89
2023-05-03T22:33:49.038Z,43.67
2023-05-03T22:36:16.045Z,43.66
2023-05-03T22:38:43.259Z,43.65
2023-05-03T22:41:10.289Z,43.26
2023-05-03T22:43:37.056Z,43.65
2023-05-03T22:46:03.914Z,43.58
2023-05-03T22:48:32.641Z,43.46
2023-05-03T22:50:59.723Z,43.35
2023-05-03T22:53:26.280Z,43.43
2023-05-03T22:56:06.580Z,43.27
2023-05-03T22:58:34.772Z,43.14
2023-05-03T23:01:01.360Z,43.32
2023-05-03T23:03:28.162Z,43.32
2023-05-03T23:05:54.791Z,42.99
2023-05-03T23:08:22.266Z,43.07
2023-05-03T23:10:49.264Z,42.95
2023-05-03T23:13:16.533Z,43.09
2023-05-03T23:15:43.138Z,42.88
2023-05-03T23:18:09.798Z,42.82
2023-05-03T23:20:36.579Z,42.92
2023-05-03T23:23:03.237Z,42.96
2023-05-03T23:25:29.868Z,42.93
2023-05-03T23:27:56.621Z,42.72
2023-05-03T23:30:26.150Z,43.00
2023-05-03T23:32:53.522Z,42.72
2023-05-03T23:35:21.263Z,42.59
2023-05-03T23:37:47.832Z,42.79
2023-05-03T23:40:14.403Z,42.82
2023-05-03T23:42:41.361Z,42.62
2023-05-03T23:45:09.556Z,42.91
2023-05-03T23:47:36.833Z,42.90
2023-05-03T23:50:03.849Z,42.57
2023-05-03T23:52:30.727Z,42.47
2023-05-03T23:54:57.338Z,42.76
2023-05-03T23:57:23.903Z,42.59
2023-05-03T23:59:50.403Z,42.58
